Latest Weather Observations for Westmere

IDV60801

Issued at 12:02 pm EST Wednesday 4 May 2016 (issued every 30 minutes, with the page automatically refreshed every 10 minutes)

About weather observations | Map of weather stations | Latest weather observations for VIC | Other Formats
Station Details ID: 089112 Name: WESTMERE Lat: -37.71 Lon: 142.94 Height: 226.0 m
Data from the previous 72 hours. | See also: Recent months at Westmere
Date/Time
EST
Temp
°C
App
Temp
°C
Dew
Point
Rel
Hum
%
Delta-T
°C
Wind Press
QNH
hPa
Press
MSL
hPa
Rain
since 9 am
mm
Dir
 
Spd
km/h
Gust
km/h
Spd
kts
Gust
kts
04/12:00pm 13.7 8.8 6.8 63 3.4 NNW 22 32 12 17 1015.0 1015.1 0.0
04/11:30am 13.7 8.7 6.3 61 3.6 NNW 22 32 12 17 1015.1 1015.2 0.0
04/11:00am 12.7 7.5 7.4 70 2.6 N 24 32 13 17 1015.2 1015.3 0.0
04/10:30am 12.3 7.8 6.8 69 2.7 NNW 20 28 11 15 1015.1 1015.2 0.0
04/10:00am 11.5 6.6 6.8 73 2.3 NNW 22 30 12 16 1015.1 1015.2 0.0
04/09:30am 10.6 5.6 6.6 76 1.9 N 22 26 12 14 1015.0 1015.1 0.0
04/09:00am 9.9 5.5 6.4 79 1.6 N 19 24 10 13 1014.9 1015.0 1.6
04/08:30am 8.3 4.4 5.4 82 1.3 N 15 20 8 11 1014.6 1014.7 1.6
04/08:00am 7.0 3.3 4.5 84 1.1 N 13 17 7 9 1014.4 1014.5 1.6
04/07:30am 6.3 2.5 4.1 86 1.0 N 13 17 7 9 1013.9 1014.0 1.6
04/07:00am 6.8 2.7 4.1 83 1.2 NNW 15 20 8 11 1013.4 1013.5 1.6
04/06:30am 7.2 3.5 4.2 81 1.3 NNW 13 17 7 9 1013.0 1013.1 1.6
04/06:00am 6.8 3.5 4.3 84 1.1 NNW 11 15 6 8 1012.7 1012.7 1.6
04/05:30am 7.0 3.3 4.7 85 1.0 NNW 13 17 7 9 1012.5 1012.5 1.6
04/05:00am 6.8 3.5 4.8 87 0.9 NNW 11 13 6 7 1012.0 1012.1 1.6
04/04:30am 6.8 3.2 4.8 87 0.9 NW 13 19 7 10 1011.6 1011.7 1.6
04/04:00am 6.7 3.1 4.9 88 0.8 NW 13 15 7 8 1011.5 1011.6 1.6
04/03:30am 6.7 3.5 4.9 88 0.8 NNW 11 13 6 7 1011.1 1011.2 1.6
04/03:00am 6.4 2.7 4.7 89 0.7 NW 13 13 7 7 1010.9 1011.0 1.6
04/02:30am 7.1 3.9 5.1 87 0.9 NW 11 13 6 7 1010.6 1010.7 1.6
04/02:00am 7.8 4.0 5.6 86 1.0 NW 15 19 8 10 1010.1 1010.2 1.6
04/01:30am 7.7 4.2 5.3 85 1.1 WNW 13 17 7 9 1010.1 1010.2 1.6
04/01:00am 7.9 4.4 5.5 85 1.1 NW 13 17 7 9 1010.0 1010.1 1.6
04/12:30am 8.5 4.7 5.6 82 1.3 NW 15 19 8 10 1009.9 1010.0 1.6
04/12:00am 9.1 4.9 5.8 80 1.5 WNW 17 20 9 11 1009.7 1009.8 1.6
 
Date/Time
EST
Temp
°C
App
Temp
°C
Dew
Point
Rel
Hum
%
Delta-T
°C
Wind Press
QNH
hPa
Press
MSL
hPa
Rain
since 9 am
mm
Dir
 
Spd
km/h
Gust
km/h
Spd
kts
Gust
kts
03/11:30pm 9.7 5.9 5.9 77 1.8 WNW 15 22 8 12 1009.7 1009.8 1.6
03/11:00pm 10.4 5.9 6.0 74 2.1 WNW 19 24 10 13 1009.3 1009.4 1.6
03/10:30pm 9.9 6.2 6.1 77 1.8 NW 15 24 8 13 1009.1 1009.1 1.6
03/10:00pm 9.5 5.9 6.6 82 1.4 NW 15 17 8 9 1008.5 1008.5 1.6
03/09:30pm 9.8 5.7 6.3 79 1.6 NW 17 22 9 12 1008.4 1008.4 1.6
03/09:00pm 11.0 6.3 6.2 72 2.3 WNW 20 32 11 17 1007.9 1007.9 1.6
03/08:30pm 10.1 6.7 6.1 76 1.9 NW 13 15 7 8 1007.3 1007.4 1.6
03/08:00pm 9.9 5.3 5.5 74 2.0 NW 19 26 10 14 1006.7 1006.8 1.6
03/07:30pm 10.6 6.0 5.6 71 2.3 WNW 19 24 10 13 1006.4 1006.5 1.6
03/07:00pm 11.6 6.4 5.7 67 2.8 WNW 22 35 12 19 1006.0 1006.1 1.6
03/06:30pm 12.2 7.4 5.8 65 3.0 WNW 20 32 11 17 1005.6 1005.7 1.6
03/06:00pm 12.4 6.7 5.1 61 3.4 W 24 35 13 19 1005.0 1005.0 1.6
03/05:30pm 11.9 8.5 7.8 76 2.0 W 15 20 8 11 1004.5 1004.5 1.6
03/05:00pm 12.8 8.3 7.0 68 2.8 WNW 20 33 11 18 1003.8 1003.8 1.6
03/04:30pm 13.0 7.7 7.0 67 2.9 WNW 24 37 13 20 1003.5 1003.5 1.6
03/04:00pm 13.1 6.9 8.0 71 2.6 WNW 30 43 16 23 1003.1 1003.2 1.6
03/03:30pm 12.9 7.3 8.6 75 2.2 WNW 28 39 15 21 1002.5 1002.6 1.6
03/03:18pm 12.9 7.4 9.0 77 2.0 WNW 28 50 15 27 1002.3 1002.4 1.6
03/03:00pm 13.3 8.2 9.2 76 2.1 WNW 26 44 14 24 1002.0 1002.1 1.6
03/02:30pm 12.0 7.0 9.6 85 1.2 WNW 26 41 14 22 1001.5 1001.5 1.6
03/02:00pm 12.9 7.1 10.8 87 1.1 W 32 52 17 28 1001.0 1001.0 0.8
03/01:45pm 15.3 10.2 10.5 73 2.6 WNW 28 48 15 26 1000.3 1000.3 0.6
03/01:30pm 15.1 11.3 12.4 84 1.5 NW 24 33 13 18 1000.1 1000.1 0.6
03/01:00pm 14.3 7.6 12.2 87 1.2 NW 39 50 21 27 1000.1 1000.1 0.0
03/12:58pm 14.5 7.7 12.0 85 1.4 NW 39 54 21 29 1000.0 1000.0 0.0
03/12:31pm 16.6 8.7 10.9 69 3.1 NNW 43 63 23 34 999.4 999.4 0.0
03/12:30pm 16.6 8.8 11.1 70 3.0 NNW 43 57 23 31 999.3 999.3 0.0
03/12:00pm 15.9 8.7 10.4 70 3.0 NNW 39 52 21 28 999.2 999.2 0.0
03/11:31am 16.3 8.2 10.6 69 3.1 NNW 44 63 24 34 999.4 999.4 0.0
03/11:30am 16.4 7.9 10.7 69 3.1 NNW 46 63 25 34 999.4 999.4 0.0
03/11:18am 17.0 9.1 10.8 67 3.4 NNW 43 61 23 33 999.3 999.3 0.0
03/11:00am 16.1 7.6 10.6 70 3.0 NNW 46 61 25 33 999.5 999.5 0.0
03/10:30am 15.2 6.9 10.2 72 2.6 NNW 44 63 24 34 999.6 999.6 0.0
03/10:01am 15.2 7.4 9.6 69 2.9 NNW 41 61 22 33 999.5 999.5 0.0
03/10:00am 15.2 7.0 9.6 69 3.0 NNW 43 61 23 33 999.4 999.4 0.0
03/09:40am 15.5 7.7 9.8 69 3.0 NNW 41 59 22 32 999.6 999.6 0.0
03/09:30am 15.3 7.5 9.7 69 2.9 NNW 41 57 22 31 999.7 999.7 0.0
03/09:22am 14.9 9.2 9.7 71 2.7 N 30 52 16 28 999.9 999.9 0.0
03/09:00am 13.3 7.8 9.2 76 2.1 N 28 39 15 21 1000.4 1000.4 0.0
03/08:30am 13.1 6.6 9.0 76 2.1 N 33 48 18 26 1000.5 1000.5 0.0
03/08:00am 13.2 7.3 9.1 76 2.1 N 30 39 16 21 1000.7 1000.7 0.0
03/07:30am 13.2 6.7 9.1 76 2.1 N 33 46 18 25 1000.8 1000.8 0.0
03/07:00am 13.3 5.0 9.2 76 2.1 N 43 56 23 30 1000.5 1000.5 0.0
03/06:30am 13.5 4.9 9.0 74 2.3 N 44 57 24 31 1000.8 1000.8 0.0
03/06:00am 14.1 5.7 8.9 71 2.7 N 43 56 23 30 1000.7 1000.7 0.0
03/05:30am 14.3 5.9 8.9 70 2.8 N 43 52 23 28 1000.8 1000.8 0.0
03/05:00am 14.3 5.8 8.5 68 3.0 NNW 43 57 23 31 1001.1 1001.1 0.0
03/04:30am 13.9 4.8 8.5 70 2.7 NNW 46 61 25 33 1000.7 1000.7 0.0
03/04:00am 14.2 5.6 8.8 70 2.8 NNW 44 57 24 31 1001.1 1001.1 0.0
03/03:34am 14.3 5.7 8.9 70 2.8 NNW 44 65 24 35 1001.1 1001.1 0.0
03/03:30am 13.9 5.5 9.1 73 2.5 NNW 43 57 23 31 1001.2 1001.2 0.0
03/03:21am 14.0 5.5 9.2 73 2.5 NNW 44 63 24 34 1001.2 1001.2 0.0
03/03:00am 14.2 5.9 9.2 72 2.6 NNW 43 56 23 30 1001.5 1001.5 0.0
03/02:30am 14.2 7.4 9.4 73 2.5 NNW 35 48 19 26 1002.5 1002.6 0.0
03/02:00am 14.2 6.7 9.4 73 2.5 NNW 39 52 21 28 1003.1 1003.2 0.0
03/01:30am 13.9 8.8 9.3 74 2.4 NNW 26 41 14 22 1003.9 1003.9 0.0
03/01:00am 13.2 7.7 9.1 76 2.1 N 28 37 15 20 1004.2 1004.2 0.0
03/12:30am 13.0 7.0 10.0 82 1.6 N 32 43 17 23 1005.0 1005.0 0.0
03/12:00am 14.4 8.9 9.0 70 2.8 NNW 28 44 15 24 1005.2 1005.2 0.0
 
Date/Time
EST
Temp
°C
App
Temp
°C
Dew
Point
Rel
Hum
%
Delta-T
°C
Wind Press
QNH
hPa
Press
MSL
hPa
Rain
since 9 am
mm
Dir
 
Spd
km/h
Gust
km/h
Spd
kts
Gust
kts
02/11:30pm 14.5 8.6 7.5 63 3.5 N 28 37 15 20 1005.5 1005.6 0.0
02/11:00pm 14.2 8.6 7.3 63 3.4 NNW 26 33 14 18 1005.6 1005.7 0.0
02/10:30pm 14.6 7.8 6.9 60 3.8 NNW 32 48 17 26 1006.1 1006.2 0.0
02/10:27pm 14.6 8.2 6.9 60 3.8 NNW 30 48 16 26 1006.1 1006.2 0.0
02/10:00pm 14.4 7.5 6.5 59 3.9 N 32 44 17 24 1006.1 1006.2 0.0
02/09:30pm 14.6 7.7 6.4 58 4.0 N 32 46 17 25 1006.2 1006.3 0.0
02/09:00pm 14.9 9.2 6.5 57 4.1 NNW 26 37 14 20 1006.6 1006.7 0.0
02/08:30pm 14.6 9.7 6.9 60 3.8 N 22 32 12 17 1006.8 1006.9 0.0
02/08:00pm 14.7 9.1 7.0 60 3.8 N 26 33 14 18 1006.9 1007.0 0.0
02/07:30pm 14.8 9.0 6.4 57 4.1 NNW 26 41 14 22 1007.0 1007.1 0.0
02/07:00pm 13.2 8.2 6.5 64 3.3 N 22 28 12 15 1006.9 1007.0 0.0
02/06:30pm 13.6 8.3 6.7 63 3.4 N 24 32 13 17 1006.9 1007.0 0.0
02/06:00pm 13.9 8.6 7.0 63 3.4 N 24 32 13 17 1007.0 1007.1 0.0
02/05:30pm 14.5 8.8 6.8 60 3.8 NNW 26 35 14 19 1007.1 1007.2 0.0
02/05:00pm 15.2 8.7 6.5 56 4.3 NNW 30 41 16 22 1007.0 1007.1 0.0
02/04:30pm 15.9 8.4 6.1 52 4.8 NNW 35 54 19 29 1007.0 1007.1 0.0
02/04:00pm 16.4 9.4 6.2 51 5.0 NNW 32 44 17 24 1007.2 1007.3 0.0
02/03:30pm 16.1 10.0 6.5 53 4.7 NNW 28 41 15 22 1007.6 1007.7 0.0
02/03:00pm 16.3 9.8 6.4 52 4.9 NNW 30 44 16 24 1007.7 1007.8 0.0
02/02:37pm 16.5 9.4 6.3 51 5.0 NNW 33 52 18 28 1008.0 1008.0 0.0
02/02:30pm 16.5 9.4 6.3 51 5.0 NNW 33 52 18 28 1008.0 1008.0 0.0
02/02:00pm 16.4 8.9 6.5 52 4.9 NNW 35 50 19 27 1008.5 1008.5 0.0
02/01:41pm 16.5 9.1 6.6 52 4.9 NNW 35 54 19 29 1008.6 1008.6 0.0
02/01:30pm 15.8 7.8 5.7 51 4.9 NNW 37 56 20 30 1008.6 1008.6 0.0
02/01:29pm 16.1 8.5 5.7 50 5.1 NNW 35 56 19 30 1008.7 1008.7 0.0
02/01:00pm 15.9 7.9 5.5 50 5.0 NNW 37 50 20 27 1008.9 1008.9 0.0
02/12:30pm 14.9 7.7 5.7 54 4.4 NNW 33 48 18 26 1009.6 1009.7 0.0
02/12:24pm 15.4 9.4 6.9 57 4.2 NNW 28 48 15 26 1009.8 1009.9 0.0
02/12:00pm 15.1 8.2 7.2 59 3.9 NNW 33 50 18 27 1010.1 1010.2 0.0
02/11:46am 15.2 8.3 6.5 56 4.3 NNW 32 52 17 28 1010.2 1010.3 0.0
02/11:30am 15.0 8.1 6.6 57 4.1 NNW 32 43 17 23 1010.4 1010.5 0.0
02/11:00am 14.2 7.2 5.8 57 4.0 NNW 32 41 17 22 1010.7 1010.8 0.0
02/10:30am 13.8 7.2 5.9 59 3.8 NNW 30 39 16 21 1011.1 1011.2 0.0
02/10:00am 12.8 6.7 6.8 67 2.9 N 28 37 15 20 1011.4 1011.5 0.0
02/09:30am 11.7 5.6 6.4 70 2.5 N 28 39 15 21 1011.7 1011.8 0.0
02/09:00am 11.1 6.1 6.6 74 2.2 N 22 28 12 15 1012.0 1012.1 0.2
02/08:30am 9.6 5.8 5.8 77 1.8 N 15 24 8 13 1012.2 1012.3 0.2
02/08:00am 8.4 3.7 5.2 80 1.5 N 19 24 10 13 1012.3 1012.4 0.2
02/07:30am 8.7 4.4 5.3 79 1.5 N 17 22 9 12 1012.1 1012.2 0.2
02/07:00am 8.4 4.1 5.2 80 1.5 N 17 20 9 11 1012.3 1012.4 0.2
02/06:30am 8.4 3.6 4.8 78 1.6 N 19 22 10 12 1012.5 1012.5 0.2
02/06:00am 8.6 4.2 4.8 77 1.7 NNW 17 22 9 12 1012.7 1012.7 0.2
02/05:30am 8.1 3.7 4.9 80 1.4 N 17 24 9 13 1012.9 1013.0 0.2
02/05:00am 6.1 2.3 4.1 87 0.9 N 13 17 7 9 1012.9 1013.0 0.2
02/04:30am 7.0 2.5 4.3 83 1.2 N 17 20 9 11 1013.0 1013.1 0.2
02/04:00am 7.2 2.7 4.3 82 1.3 N 17 24 9 13 1012.9 1013.0 0.2
02/03:30am 5.6 1.8 3.9 89 0.7 N 13 15 7 8 1013.4 1013.5 0.2
02/03:00am 6.5 3.1 4.0 84 1.1 N 11 15 6 8 1013.7 1013.8 0.2
02/02:30am 6.8 2.7 4.1 83 1.2 N 15 17 8 9 1014.0 1014.1 0.2
02/02:00am 7.0 2.9 4.3 83 1.2 N 15 20 8 11 1014.1 1014.2 0.2
02/01:30am 6.8 3.0 4.1 83 1.2 N 13 17 7 9 1014.5 1014.6 0.2
02/01:00am 7.0 3.3 4.3 83 1.2 N 13 17 7 9 1014.6 1014.7 0.2
02/12:30am 7.5 3.8 4.3 80 1.4 N 13 19 7 10 1014.9 1015.0 0.2
02/12:00am 7.0 3.6 4.1 82 1.3 N 11 15 6 8 1015.2 1015.3 0.2
 
Date/Time
EST
Temp
°C
App
Temp
°C
Dew
Point
Rel
Hum
%
Delta-T
°C
Wind Press
QNH
hPa
Press
MSL
hPa
Rain
since 9 am
mm
Dir
 
Spd
km/h
Gust
km/h
Spd
kts
Gust
kts
01/11:30pm 7.4 3.2 4.0 79 1.5 NNW 15 20 8 11 1015.4 1015.5 0.2
01/11:00pm 7.8 4.0 4.0 77 1.7 NNW 13 17 7 9 1015.6 1015.7 0.2
01/10:30pm 7.3 3.2 4.1 80 1.4 N 15 17 8 9 1015.8 1015.9 0.2
01/10:00pm 7.7 4.0 4.5 80 1.4 NNW 13 17 7 9 1016.0 1016.1 0.2
01/09:30pm 8.0 4.0 5.1 82 1.3 NW 15 17 8 9 1015.9 1016.0 0.2
01/09:00pm 8.0 4.8 5.1 82 1.3 NNW 11 15 6 8 1015.7 1015.8 0.2
01/08:30pm 8.3 4.7 4.9 79 1.5 WNW 13 17 7 9 1015.3 1015.4 0.2
01/08:00pm 8.7 5.1 4.9 77 1.7 WNW 13 17 7 9 1015.2 1015.3 0.2
01/07:30pm 9.3 5.3 5.1 75 1.9 WNW 15 19 8 10 1014.9 1015.0 0.2
01/07:00pm 9.9 6.2 4.5 69 2.4 WNW 13 20 7 11 1014.9 1015.0 0.2
01/06:30pm 9.7 6.5 4.9 72 2.2 WNW 11 15 6 8 1014.8 1014.9 0.2
01/06:00pm 10.6 7.0 4.9 68 2.6 W 13 19 7 10 1014.5 1014.6 0.2
01/05:30pm 11.4 6.4 4.6 63 3.1 WSW 20 28 11 15 1014.2 1014.3 0.2
01/05:00pm 12.3 6.9 4.3 58 3.7 W 22 33 12 18 1014.1 1014.2 0.2
01/04:30pm 12.7 6.9 4.4 57 3.8 W 24 39 13 21 1013.5 1013.6 0.2
01/04:00pm 12.5 6.1 5.0 60 3.5 W 28 43 15 23 1013.2 1013.3 0.2
01/03:46pm 12.6 6.3 5.8 63 3.2 WSW 28 46 15 25 1013.1 1013.2 0.2
01/03:30pm 13.1 7.5 5.3 59 3.7 WSW 24 37 13 20 1012.9 1013.0 0.2
01/03:00pm 11.0 5.4 5.3 68 2.6 W 24 35 13 19 1012.9 1013.0 0.2
01/02:30pm 12.9 7.4 5.8 62 3.4 W 24 35 13 19 1012.0 1012.1 0.2
01/02:00pm 12.9 7.1 6.3 64 3.2 W 26 43 14 23 1011.6 1011.7 0.2
01/01:30pm 11.7 6.0 6.6 71 2.4 WSW 26 43 14 23 1011.4 1011.5 0.2
01/01:00pm 12.4 6.4 7.1 70 2.6 WNW 28 43 15 23 1011.2 1011.3 0.2
01/12:30pm 11.8 6.6 7.1 73 2.3 W 24 39 13 21 1011.3 1011.4 0.2

Other Formats:

Comma delimited format used in spreadsheet applications
http://www.bom.gov.au/fwo/IDV60801/IDV60801.95840.axf

JavaScript Object Notation format (JSON) in row-major order
http://www.bom.gov.au/fwo/IDV60801/IDV60801.95840.json